createdAt,value
2022-12-05T00:01:46.004Z,98947.19
2022-12-05T00:04:15.350Z,98946.41
2022-12-05T00:06:45.353Z,98953.31
2022-12-05T00:09:14.275Z,98954.19
2022-12-05T00:11:43.878Z,98947.38
2022-12-05T00:14:13.021Z,98949.13
2022-12-05T00:16:42.318Z,98948.19
2022-12-05T00:19:11.981Z,98958.59
2022-12-05T00:21:39.693Z,98970.66
2022-12-05T00:24:13.558Z,98967.31
2022-12-05T00:26:41.517Z,98963.91
2022-12-05T00:29:09.419Z,98932.00
2022-12-05T00:31:52.102Z,98967.28
2022-12-05T00:34:20.400Z,98975.03
2022-12-05T00:36:48.320Z,98974.97
2022-12-05T00:39:17.540Z,98970.66
2022-12-05T00:41:45.832Z,98974.09
2022-12-05T00:44:16.843Z,98977.63
2022-12-05T00:46:51.309Z,98978.56
2022-12-05T00:49:19.252Z,98982.88
2022-12-05T00:51:47.498Z,98985.47
2022-12-05T00:54:18.509Z,98989.75
2022-12-05T00:56:47.127Z,98984.59
2022-12-05T00:59:19.965Z,98985.34
2022-12-05T01:01:51.242Z,98992.25
2022-12-05T01:04:21.962Z,98981.00
2022-12-05T01:06:50.415Z,98988.75
2022-12-05T01:09:21.353Z,98987.97
2022-12-05T01:11:56.607Z,98987.00
2022-12-05T01:14:26.865Z,98989.69
2022-12-05T01:16:56.508Z,98990.59
2022-12-05T01:19:26.262Z,98995.81
2022-12-05T01:21:54.486Z,98999.25
2022-12-05T01:24:25.082Z,99000.97
2022-12-05T01:26:53.780Z,98997.38
2022-12-05T01:29:23.242Z,99000.91
2022-12-05T01:31:51.032Z,99003.50
2022-12-05T01:34:19.830Z,99013.06
2022-12-05T01:36:48.056Z,99005.25
2022-12-05T01:39:16.661Z,99019.03
2022-12-05T01:41:48.801Z,99016.47
2022-12-05T01:44:54.535Z,99013.81
2022-12-05T01:47:23.187Z,99013.81
2022-12-05T01:49:51.092Z,98997.41
2022-12-05T01:52:21.360Z,99013.84
2022-12-05T01:54:50.352Z,99017.31
2022-12-05T01:57:19.859Z,99012.94
2022-12-05T01:59:52.462Z,99015.63
2022-12-05T02:02:21.086Z,99000.94
2022-12-05T02:04:52.675Z,99015.75
2022-12-05T02:07:20.972Z,99019.19
2022-12-05T02:09:50.962Z,99022.59
2022-12-05T02:12:20.331Z,99019.09
2022-12-05T02:14:55.977Z,99023.38
2022-12-05T02:17:30.849Z,99020.81
2022-12-05T02:20:10.462Z,99025.06
2022-12-05T02:22:57.990Z,99025.09
2022-12-05T02:25:50.874Z,99019.03
2022-12-05T02:28:34.997Z,99018.16
2022-12-05T02:31:09.333Z,99011.25
2022-12-05T02:33:40.330Z,99025.06
2022-12-05T02:36:11.605Z,99022.47
2022-12-05T02:38:41.894Z,99021.53
2022-12-05T02:41:16.131Z,98995.66
2022-12-05T02:43:48.120Z,99019.78
2022-12-05T02:46:20.322Z,99017.31
2022-12-05T02:48:49.077Z,99024.09
2022-12-05T02:51:20.809Z,99021.59
2022-12-05T02:53:50.685Z,99027.59
2022-12-05T02:56:18.753Z,99023.34
2022-12-05T02:58:51.841Z,99026.00
2022-12-05T03:01:21.486Z,99025.16
2022-12-05T03:03:49.298Z,99026.84
2022-12-05T03:06:20.379Z,99020.72
2022-12-05T03:08:50.165Z,99025.03
2022-12-05T03:11:17.852Z,99028.44
2022-12-05T03:13:47.398Z,99019.84
2022-12-05T03:16:19.157Z,99024.91
2022-12-05T03:18:50.032Z,99033.66
2022-12-05T03:21:23.632Z,99023.25
2022-12-05T03:23:52.757Z,99043.09
2022-12-05T03:26:31.392Z,99048.34
2022-12-05T03:29:04.265Z,99054.44
2022-12-05T03:31:36.807Z,99055.34
2022-12-05T03:34:09.179Z,99046.75
2022-12-05T03:36:40.726Z,99053.69
2022-12-05T03:39:11.823Z,99045.88
2022-12-05T03:41:42.394Z,99049.41
2022-12-05T03:44:14.572Z,99049.44
2022-12-05T03:46:44.796Z,99045.97
2022-12-05T03:49:18.287Z,99055.53
2022-12-05T03:51:50.488Z,99055.50
2022-12-05T03:54:21.465Z,99048.59
2022-12-05T03:56:52.484Z,99057.22
2022-12-05T03:59:23.908Z,99046.00
2022-12-05T04:01:52.904Z,99055.41
2022-12-05T04:04:23.717Z,99063.19
2022-12-05T04:06:53.262Z,99066.63
2022-12-05T04:09:24.045Z,99062.31
2022-12-05T04:11:56.354Z,99045.06
2022-12-05T04:14:28.128Z,99053.59
2022-12-05T04:17:04.203Z,99058.69
2022-12-05T04:19:51.757Z,99077.91
2022-12-05T04:22:20.073Z,99082.09
2022-12-05T04:25:06.026Z,99078.72
2022-12-05T04:27:40.280Z,99081.28
2022-12-05T04:30:11.356Z,99081.25
2022-12-05T04:32:43.043Z,99077.91
2022-12-05T04:35:16.293Z,99098.59
2022-12-05T04:37:46.261Z,99097.75
2022-12-05T04:40:17.440Z,99097.78
2022-12-05T04:42:46.015Z,99101.22
2022-12-05T04:45:16.751Z,99100.28
2022-12-05T04:47:48.205Z,99102.91
2022-12-05T04:50:17.590Z,99096.00
2022-12-05T04:52:47.937Z,99111.63
2022-12-05T04:55:20.139Z,99101.19
2022-12-05T04:57:53.052Z,99101.25
2022-12-05T05:00:20.866Z,99103.81
2022-12-05T05:02:53.168Z,99101.13
2022-12-05T05:05:23.680Z,99101.16
2022-12-05T05:07:53.207Z,99107.19
2022-12-05T05:10:23.178Z,99100.25
2022-12-05T05:12:50.756Z,99098.56
2022-12-05T05:15:18.397Z,99089.97
2022-12-05T05:17:46.008Z,99092.47
2022-12-05T05:20:25.568Z,99092.47
2022-12-05T05:22:55.629Z,99094.19
2022-12-05T05:25:23.656Z,99091.59
2022-12-05T05:27:52.302Z,99093.28
2022-12-05T05:30:20.251Z,99094.19
2022-12-05T05:32:48.264Z,99098.44
2022-12-05T05:35:16.527Z,99098.47
2022-12-05T05:37:44.183Z,99101.00
2022-12-05T05:40:14.568Z,99101.09
2022-12-05T05:42:46.301Z,99107.13
2022-12-05T05:45:15.256Z,99103.63
2022-12-05T05:47:43.566Z,99111.38
2022-12-05T05:50:16.270Z,99097.50
2022-12-05T05:52:47.458Z,99105.31
2022-12-05T05:55:16.507Z,99109.66
2022-12-05T05:57:44.249Z,99111.41
2022-12-05T06:00:13.139Z,99108.84
2022-12-05T06:02:40.848Z,99117.47
2022-12-05T06:05:09.411Z,99109.75
2022-12-05T06:07:37.125Z,99103.69
2022-12-05T06:10:05.799Z,99117.47
2022-12-05T06:12:35.094Z,99104.59
2022-12-05T06:15:02.776Z,99116.59
2022-12-05T06:17:31.198Z,99117.44
2022-12-05T06:19:58.957Z,99120.88
2022-12-05T06:22:26.857Z,99114.78
2022-12-05T06:24:54.606Z,99118.19
2022-12-05T06:27:22.359Z,99124.25
2022-12-05T06:29:51.434Z,99129.47
2022-12-05T06:32:19.060Z,99131.22
2022-12-05T06:34:46.714Z,99132.94
2022-12-05T06:37:14.360Z,99127.78
2022-12-05T06:39:42.480Z,99124.31
2022-12-05T06:42:10.352Z,99123.47
2022-12-05T06:44:38.086Z,99130.31
2022-12-05T06:47:07.035Z,99126.03
2022-12-05T06:49:37.891Z,99125.13
2022-12-05T06:52:06.233Z,99137.41
2022-12-05T06:54:33.988Z,99143.50
2022-12-05T06:57:03.710Z,99153.94
2022-12-05T06:59:31.351Z,99160.84
2022-12-05T07:01:58.086Z,99167.81
2022-12-05T07:04:27.085Z,99165.19
2022-12-05T07:06:55.870Z,99169.56
2022-12-05T07:09:45.780Z,99154.00
2022-12-05T07:12:14.111Z,99163.44
2022-12-05T07:14:50.010Z,99160.91
2022-12-05T07:17:18.363Z,99168.63
2022-12-05T07:19:48.414Z,99167.81
2022-12-05T07:22:16.418Z,99142.75
2022-12-05T07:24:44.561Z,99166.84
2022-12-05T07:27:12.433Z,99164.22
2022-12-05T07:29:40.163Z,99164.16
2022-12-05T07:32:08.300Z,99173.69
2022-12-05T07:34:36.128Z,99185.84
2022-12-05T07:37:05.407Z,99183.22
2022-12-05T07:39:33.182Z,99194.44
2022-12-05T07:42:00.979Z,99191.84
2022-12-05T07:44:28.613Z,99193.56
2022-12-05T07:46:56.277Z,99204.81
2022-12-05T07:49:23.887Z,99201.34
2022-12-05T07:51:51.679Z,99201.31
2022-12-05T07:54:20.667Z,99203.88
2022-12-05T07:56:48.344Z,99209.88
2022-12-05T07:59:16.057Z,99218.53
2022-12-05T08:01:43.664Z,99227.97
2022-12-05T08:04:15.263Z,99226.25
2022-12-05T08:06:43.330Z,99229.78
2022-12-05T08:09:11.021Z,99227.25
2022-12-05T08:11:40.066Z,99231.59
2022-12-05T08:14:08.043Z,99239.34
2022-12-05T08:16:35.862Z,99236.78
2022-12-05T08:19:05.854Z,99223.84
2022-12-05T08:21:34.565Z,99228.09
2022-12-05T08:24:03.878Z,99233.22
2022-12-05T08:26:32.772Z,99240.22
2022-12-05T08:29:03.482Z,99232.38
2022-12-05T08:31:33.305Z,99232.31
2022-12-05T08:34:01.727Z,99234.06
2022-12-05T08:36:31.093Z,99233.28
2022-12-05T08:38:59.817Z,99242.69
2022-12-05T08:41:28.987Z,99250.50
2022-12-05T08:43:56.851Z,99254.75
2022-12-05T08:46:26.164Z,99246.88
2022-12-05T08:48:53.943Z,99254.72
2022-12-05T08:51:21.671Z,99246.09
2022-12-05T08:53:49.475Z,99259.03
2022-12-05T08:56:18.893Z,99259.00
2022-12-05T08:58:48.597Z,99263.34
2022-12-05T09:01:18.110Z,99254.63
2022-12-05T09:03:48.365Z,99267.56
2022-12-05T09:06:18.121Z,99263.19
2022-12-05T09:08:46.397Z,99269.25
2022-12-05T09:11:16.031Z,99261.50
2022-12-05T09:13:44.020Z,99266.63
2022-12-05T09:16:13.686Z,99264.94
2022-12-05T09:18:41.768Z,99264.06
2022-12-05T09:21:12.457Z,99274.34
2022-12-05T09:23:40.169Z,99273.47
2022-12-05T09:26:11.755Z,99285.63
2022-12-05T09:28:39.562Z,99292.59
2022-12-05T09:31:08.671Z,99296.91
2022-12-05T09:33:38.168Z,99295.94
2022-12-05T09:36:06.779Z,99293.41
2022-12-05T09:38:35.836Z,99300.38
2022-12-05T09:41:09.290Z,99303.84
2022-12-05T09:43:41.303Z,99289.06
2022-12-05T09:46:14.747Z,99290.81
2022-12-05T09:48:44.899Z,99283.88
2022-12-05T09:51:13.673Z,99252.00
2022-12-05T09:53:44.467Z,99290.75
2022-12-05T09:56:15.406Z,99285.47
2022-12-05T09:58:45.344Z,99282.88
2022-12-05T10:01:24.550Z,99284.59
2022-12-05T10:04:05.294Z,99284.56
2022-12-05T10:06:36.099Z,99281.06
2022-12-05T10:09:19.933Z,99283.50
2022-12-05T10:11:51.533Z,99251.63
2022-12-05T10:14:24.575Z,99280.84
2022-12-05T10:16:55.124Z,99285.06
2022-12-05T10:19:26.618Z,99285.09
2022-12-05T10:21:59.133Z,99285.06
2022-12-05T10:24:31.658Z,99276.47
2022-12-05T10:27:01.790Z,99285.88
2022-12-05T10:29:31.505Z,99280.59
2022-12-05T10:32:06.719Z,99284.13
2022-12-05T10:34:36.589Z,99286.63
2022-12-05T10:37:11.204Z,99271.84
2022-12-05T10:39:40.480Z,99276.84
2022-12-05T10:42:11.663Z,99276.81
2022-12-05T10:44:39.353Z,99277.72
2022-12-05T10:47:07.361Z,99278.53
2022-12-05T10:49:35.542Z,99279.13
2022-12-05T10:52:03.287Z,99273.72
2022-12-05T10:54:32.473Z,99268.41
2022-12-05T10:57:01.871Z,99267.63
2022-12-05T10:59:47.037Z,99262.19
2022-12-05T11:02:22.661Z,99267.56
2022-12-05T11:04:50.478Z,99245.09
2022-12-05T11:07:28.175Z,99263.34
2022-12-05T11:09:55.837Z,99266.81
2022-12-05T11:12:27.012Z,99266.09
2022-12-05T11:14:57.163Z,99269.47
2022-12-05T11:17:27.670Z,99267.03
2022-12-05T11:19:55.267Z,99260.81
2022-12-05T11:22:32.454Z,99265.03
2022-12-05T11:25:00.544Z,99267.84
2022-12-05T11:27:31.853Z,99272.13
2022-12-05T11:30:02.170Z,99278.16
2022-12-05T11:32:32.762Z,99276.53
2022-12-05T11:35:14.477Z,99272.22
2022-12-05T11:37:46.198Z,99274.88
2022-12-05T11:40:16.314Z,99267.94
2022-12-05T11:42:57.064Z,99272.22
2022-12-05T11:45:36.232Z,99268.75
2022-12-05T11:48:17.946Z,99269.47
2022-12-05T11:50:53.802Z,99267.72
2022-12-05T11:53:51.350Z,99268.66
2022-12-05T11:56:27.710Z,99271.34
2022-12-05T11:59:10.657Z,99264.31
2022-12-05T12:01:47.538Z,99227.22
2022-12-05T12:04:29.404Z,99260.78
2022-12-05T12:07:08.538Z,99258.13
2022-12-05T12:09:43.937Z,99258.03
2022-12-05T12:12:22.045Z,99259.78
2022-12-05T12:14:58.784Z,99263.28
2022-12-05T12:17:32.540Z,99257.22
2022-12-05T12:20:11.602Z,99267.44
2022-12-05T12:22:49.319Z,99268.34
2022-12-05T12:25:24.804Z,99268.34
2022-12-05T12:28:04.523Z,99271.81
2022-12-05T12:30:42.026Z,99272.69
2022-12-05T12:33:16.250Z,99267.44
2022-12-05T12:35:47.490Z,99272.66
2022-12-05T12:38:33.587Z,99257.00
2022-12-05T12:41:06.574Z,99259.59
2022-12-05T12:43:54.685Z,99254.34
2022-12-05T12:46:41.935Z,99256.03
2022-12-05T12:49:20.513Z,99254.34
2022-12-05T12:51:53.775Z,99253.47
2022-12-05T12:57:35.396Z,99259.56
2022-12-05T13:00:10.850Z,99252.66
2022-12-05T13:02:45.153Z,99252.72
2022-12-05T13:05:22.612Z,99257.84
2022-12-05T13:07:53.103Z,99252.69
2022-12-05T13:10:26.490Z,99262.31
2022-12-05T13:12:55.487Z,99263.94
2022-12-05T13:15:27.700Z,99260.44
2022-12-05T13:17:56.839Z,99260.56
2022-12-05T13:20:26.593Z,99258.84
2022-12-05T13:22:55.065Z,99263.13
2022-12-05T13:25:29.055Z,99264.88
2022-12-05T13:27:58.695Z,99257.81
2022-12-05T13:30:28.114Z,99253.53
2022-12-05T13:32:59.095Z,99253.56
2022-12-05T13:35:49.634Z,99257.88
2022-12-05T13:38:39.559Z,99254.34
2022-12-05T13:41:25.024Z,99256.91
2022-12-05T13:44:05.867Z,99254.28
2022-12-05T13:46:36.139Z,99263.91
2022-12-05T13:49:11.672Z,99270.03
2022-12-05T13:51:44.422Z,99266.59
2022-12-05T13:54:14.708Z,99263.91
2022-12-05T13:56:51.630Z,99270.97
2022-12-05T13:59:56.965Z,99276.94
2022-12-05T14:02:51.245Z,99277.03
2022-12-05T14:05:49.230Z,99277.91
2022-12-05T14:08:46.588Z,99275.25
2022-12-05T14:11:14.321Z,99281.31
2022-12-05T14:13:44.828Z,99280.44
2022-12-05T14:16:49.992Z,99285.69
2022-12-05T14:19:59.342Z,99283.09
2022-12-05T14:23:09.130Z,99285.72
2022-12-05T14:26:02.114Z,99287.50
2022-12-05T14:28:49.172Z,99283.16
2022-12-05T14:31:38.594Z,99291.75
2022-12-05T14:34:20.756Z,99291.84
2022-12-05T14:37:04.213Z,99286.69
2022-12-05T14:39:37.926Z,99296.19
2022-12-05T14:42:21.602Z,99292.66
2022-12-05T14:44:50.409Z,99286.59
2022-12-05T14:47:20.671Z,99284.94
2022-12-05T14:49:57.892Z,99261.78
2022-12-05T14:52:27.329Z,99285.03
2022-12-05T14:54:58.440Z,99292.00
2022-12-05T14:57:28.072Z,99289.28
2022-12-05T14:59:57.868Z,99283.38
2022-12-05T15:02:27.988Z,99283.38
2022-12-05T15:04:59.796Z,99297.13
2022-12-05T15:07:33.116Z,99292.81
2022-12-05T15:10:02.890Z,99285.00
2022-12-05T15:12:36.903Z,99290.25
2022-12-05T15:15:09.375Z,99296.34
2022-12-05T15:17:45.954Z,99292.00
2022-12-05T15:20:19.223Z,99300.59
2022-12-05T15:22:46.925Z,99298.91
2022-12-05T15:25:29.254Z,99284.25
2022-12-05T15:28:01.295Z,99293.78
2022-12-05T15:30:30.781Z,99301.50
2022-12-05T15:32:59.860Z,99286.78
2022-12-05T15:35:30.105Z,99292.03
2022-12-05T15:38:00.608Z,99296.31
2022-12-05T15:40:37.242Z,99296.28
2022-12-05T15:46:27.778Z,99295.34
2022-12-05T15:48:57.016Z,99292.00
2022-12-05T15:51:29.955Z,99298.06
2022-12-05T15:54:01.318Z,99284.34
2022-12-05T15:56:31.463Z,99302.34
2022-12-05T15:59:05.801Z,99298.97
2022-12-05T16:01:40.837Z,99293.75
2022-12-05T16:04:15.960Z,99303.28
2022-12-05T16:06:45.812Z,99302.38
2022-12-05T16:09:16.349Z,99305.75
2022-12-05T16:11:52.711Z,99317.22
2022-12-05T16:14:50.902Z,99319.81
2022-12-05T16:17:14.233Z,99313.75
2022-12-05T16:19:42.123Z,99303.41
2022-12-05T16:22:15.899Z,99300.75
2022-12-05T16:24:44.655Z,99314.59
2022-12-05T16:27:17.831Z,99290.44
2022-12-05T16:29:45.880Z,99318.84
2022-12-05T16:32:21.552Z,99317.09
2022-12-05T16:34:49.421Z,99325.78
2022-12-05T16:37:23.809Z,99324.97
2022-12-05T16:39:51.470Z,99324.13
2022-12-05T16:42:29.559Z,99326.69
2022-12-05T16:45:02.106Z,99323.22
2022-12-05T16:47:57.107Z,99323.22
2022-12-05T16:50:32.267Z,99323.19
2022-12-05T16:53:04.467Z,99322.34
2022-12-05T16:55:37.228Z,99317.16
2022-12-05T16:58:05.177Z,99321.53
2022-12-05T17:00:33.206Z,99314.69
2022-12-05T17:03:32.262Z,99323.31
2022-12-05T17:05:50.626Z,99329.38
2022-12-05T17:08:18.336Z,99325.91
2022-12-05T17:10:46.049Z,99338.16
2022-12-05T17:13:15.590Z,99302.81
2022-12-05T17:15:43.509Z,99333.72
2022-12-05T17:18:14.331Z,99326.94
2022-12-05T17:20:43.411Z,99298.41
2022-12-05T17:23:15.234Z,99331.25
2022-12-05T17:25:44.780Z,99329.59
2022-12-05T17:28:12.632Z,99334.75
2022-12-05T17:30:40.544Z,99333.06
2022-12-05T17:33:11.040Z,99332.19
2022-12-05T17:35:40.693Z,99327.91
2022-12-05T17:38:08.626Z,99332.19
2022-12-05T17:40:36.592Z,99333.09
2022-12-05T17:43:04.699Z,99339.09
2022-12-05T17:45:33.176Z,99331.28
2022-12-05T17:48:01.388Z,99330.53
2022-12-05T17:50:29.862Z,99339.25
2022-12-05T17:53:04.224Z,99322.06
2022-12-05T17:55:34.837Z,99346.31
2022-12-05T17:58:02.491Z,99338.44
2022-12-05T18:00:30.288Z,99343.66
2022-12-05T18:02:58.359Z,99341.06
2022-12-05T18:05:26.094Z,99346.19
2022-12-05T18:07:53.815Z,99343.63
2022-12-05T18:10:23.742Z,99331.63
2022-12-05T18:12:52.085Z,99346.19
2022-12-05T18:15:28.313Z,99349.69
2022-12-05T18:17:56.094Z,99348.81
2022-12-05T18:20:23.719Z,99348.81
2022-12-05T18:22:51.685Z,99358.38
2022-12-05T18:25:19.423Z,99356.66
2022-12-05T18:27:48.650Z,99351.44
2022-12-05T18:30:16.421Z,99350.53
2022-12-05T18:32:44.383Z,99346.25
2022-12-05T18:35:13.229Z,99347.16
2022-12-05T18:37:41.154Z,99348.81
2022-12-05T18:40:10.917Z,99347.91
2022-12-05T18:42:38.553Z,99341.03
2022-12-05T18:45:09.243Z,99351.34
2022-12-05T18:47:37.148Z,99350.41
2022-12-05T18:50:05.280Z,99351.31
2022-12-05T18:52:33.020Z,99352.22
2022-12-05T18:55:16.333Z,99346.16
2022-12-05T18:57:45.424Z,99346.97
2022-12-05T19:00:16.071Z,99353.03
2022-12-05T19:02:43.834Z,99343.53
2022-12-05T19:05:11.527Z,99341.81
2022-12-05T19:07:39.223Z,99348.63
2022-12-05T19:10:08.424Z,99350.28
2022-12-05T19:12:37.526Z,99352.09
2022-12-05T19:15:06.231Z,99334.81
2022-12-05T19:17:35.511Z,99354.78
2022-12-05T19:20:03.244Z,99357.44
2022-12-05T19:22:31.359Z,99345.28
2022-12-05T19:24:59.676Z,99349.66
2022-12-05T19:27:27.495Z,99349.66
2022-12-05T19:29:55.424Z,99355.81
2022-12-05T19:32:23.288Z,99358.25
2022-12-05T19:34:52.375Z,99353.03
2022-12-05T19:37:20.287Z,99355.69
2022-12-05T19:39:49.662Z,99360.00
2022-12-05T19:42:17.383Z,99354.81
2022-12-05T19:44:45.933Z,99351.31
2022-12-05T19:47:13.527Z,99353.03
2022-12-05T19:49:41.278Z,99333.25
2022-12-05T19:52:10.352Z,99353.00
2022-12-05T19:54:39.355Z,99311.66
2022-12-05T19:57:07.012Z,99357.38
2022-12-05T19:59:34.670Z,99358.25
2022-12-05T20:02:02.468Z,99351.31
2022-12-05T20:04:30.303Z,99347.97
2022-12-05T20:06:58.029Z,99353.88
2022-12-05T20:09:27.959Z,99359.09
2022-12-05T20:11:56.197Z,99358.13
2022-12-05T20:14:25.137Z,99361.66
2022-12-05T20:16:53.127Z,99361.72
2022-12-05T20:19:21.323Z,99369.50
2022-12-05T20:21:48.904Z,99367.75
2022-12-05T20:24:16.670Z,99363.41
2022-12-05T20:26:46.023Z,99363.41
2022-12-05T20:29:13.944Z,99370.31
2022-12-05T20:31:43.096Z,99367.69
2022-12-05T20:34:13.258Z,99340.13
2022-12-05T20:36:41.019Z,99357.34
2022-12-05T20:39:11.169Z,99364.22
2022-12-05T20:41:38.982Z,99349.56
2022-12-05T20:44:08.810Z,99365.97
2022-12-05T20:46:36.892Z,99374.66
2022-12-05T20:49:04.818Z,99370.38
2022-12-05T20:51:34.272Z,99375.56
2022-12-05T20:54:03.604Z,99364.25
2022-12-05T20:56:33.605Z,99368.56
2022-12-05T20:59:03.202Z,99371.19
2022-12-05T21:01:33.908Z,99363.31
2022-12-05T21:04:02.673Z,99364.22
2022-12-05T21:06:32.739Z,99353.91
2022-12-05T21:09:01.724Z,99372.03
2022-12-05T21:11:30.914Z,99351.31
2022-12-05T21:14:00.677Z,99364.16
2022-12-05T21:16:28.984Z,99367.66
2022-12-05T21:19:00.692Z,99361.59
2022-12-05T21:21:29.710Z,99361.56
2022-12-05T21:23:59.277Z,99364.09
2022-12-05T21:26:28.029Z,99372.78
2022-12-05T21:28:56.359Z,99364.09
2022-12-05T21:31:26.161Z,99370.22
2022-12-05T21:33:55.623Z,99359.88
2022-12-05T21:36:25.458Z,99363.25
2022-12-05T21:38:56.184Z,99363.28
2022-12-05T21:41:24.778Z,99355.47
2022-12-05T21:43:55.259Z,99357.94
2022-12-05T21:46:23.627Z,99360.53
2022-12-05T21:48:51.399Z,99363.19
2022-12-05T21:51:19.320Z,99364.09
2022-12-05T21:53:48.513Z,99328.78
2022-12-05T21:56:18.421Z,99358.84
2022-12-05T21:58:47.188Z,99345.94
2022-12-05T22:01:18.235Z,99357.97
2022-12-05T22:03:46.324Z,99358.84
2022-12-05T22:06:15.618Z,99364.06
2022-12-05T22:08:43.826Z,99363.19
2022-12-05T22:11:14.587Z,99377.03
2022-12-05T22:13:42.367Z,99369.28
2022-12-05T22:16:10.334Z,99373.59
2022-12-05T22:18:38.573Z,99375.28
2022-12-05T22:21:08.691Z,99373.56
2022-12-05T22:23:36.897Z,99378.00
2022-12-05T22:26:06.151Z,99357.31
2022-12-05T22:28:35.993Z,99379.81
2022-12-05T22:31:05.525Z,99374.66
2022-12-05T22:33:35.702Z,99364.22
2022-12-05T22:36:04.915Z,99372.00
2022-12-05T22:38:34.925Z,99376.34
2022-12-05T22:41:04.078Z,99377.25
2022-12-05T22:43:33.139Z,99371.09
2022-12-05T22:46:06.165Z,99363.41
2022-12-05T22:48:34.481Z,99365.03
2022-12-05T22:51:03.761Z,99371.97
2022-12-05T22:53:31.802Z,99368.50
2022-12-05T22:56:03.374Z,99359.09
2022-12-05T22:58:31.120Z,99360.91
2022-12-05T23:00:58.791Z,99359.06
2022-12-05T23:03:27.865Z,99353.06
2022-12-05T23:05:55.494Z,99358.25
2022-12-05T23:08:23.168Z,99353.13
2022-12-05T23:10:50.851Z,99350.47
2022-12-05T23:13:18.494Z,99315.91
2022-12-05T23:15:46.411Z,99331.47
2022-12-05T23:18:14.550Z,99329.69
2022-12-05T23:20:43.699Z,99345.22
2022-12-05T23:23:11.345Z,99346.25
2022-12-05T23:25:38.960Z,99347.81
2022-12-05T23:28:06.935Z,99342.66
2022-12-05T23:30:34.510Z,99344.44
2022-12-05T23:33:02.180Z,99342.75
2022-12-05T23:35:29.770Z,99350.75
2022-12-05T23:37:58.727Z,99352.47
2022-12-05T23:40:26.366Z,99346.38
2022-12-05T23:42:54.024Z,99344.69
2022-12-05T23:45:21.641Z,99348.16
2022-12-05T23:47:49.228Z,99343.91
2022-12-05T23:50:17.064Z,99313.78
2022-12-05T23:52:44.714Z,99338.69
2022-12-05T23:55:13.827Z,99343.91
2022-12-05T23:57:41.485Z,99340.34
